GTI6584 KBFI-KBWI
Flight info
| Callsign | GTI6584 |
|---|---|
| Flight time | N/A |
| Altitude | 37000 |
| Route | NORMY J90 MWH J34 DPR J16 MCW DBQ JOT FWA NUSMM ANTHM5 |
| Aircraft | B77L/H-SDE1E2E3FGHIJ2J3J4J5M1RWXYZ/L |
Departure
| Time | 2026-05-07 07:23 |
|---|---|
| Airport | King County International Airport - Boeing Field (KBFI) |
Arrival
| Time | N/A |
|---|---|
| Airport | Baltimore/Washington International Thurgood Marshall Airport (KBWI) |
| Time | Latitude | Longitude | Altitude | Speed | Heading |
|---|---|---|---|---|---|
| 2026-05-07 07:08 | 47.54012 | -122.31377 | 32 ft | 0 kts | 180° |
| 2026-05-07 07:20 | 47.54006 | -122.31377 | 32 ft | 3 kts | 179° |
| 2026-05-07 07:20 | 47.53984 | -122.31376 | 32 ft | 3 kts | 176° |
| 2026-05-07 07:20 | 47.53965 | -122.31356 | 32 ft | 4 kts | 126° |
| 2026-05-07 07:21 | 47.53963 | -122.31317 | 32 ft | 5 kts | 80° |
| 2026-05-07 07:21 | 47.53985 | -122.31269 | 32 ft | 6 kts | 32° |
| 2026-05-07 07:21 | 47.54030 | -122.31272 | 31 ft | 7 kts | 342° |
| 2026-05-07 07:21 | 47.54080 | -122.31309 | 32 ft | 8 kts | 331° |
| 2026-05-07 07:22 | 47.54130 | -122.31352 | 32 ft | 8 kts | 329° |
| 2026-05-07 07:22 | 47.54184 | -122.31386 | 32 ft | 9 kts | 352° |
| 2026-05-07 07:22 | 47.54235 | -122.31342 | 32 ft | 9 kts | 64° |
| 2026-05-07 07:22 | 47.54217 | -122.31271 | 31 ft | 8 kts | 147° |
| 2026-05-07 07:23 | 47.54171 | -122.31232 | 32 ft | 10 kts | 150° |
| 2026-05-07 07:23 | 47.53954 | -122.31050 | 31 ft | 75 kts | 150° |
| 2026-05-07 07:23 | 47.53242 | -122.30449 | 62 ft | 152 kts | 150° |
| 2026-05-07 07:23 | 47.52243 | -122.29598 | 627 ft | 177 kts | 151° |
| 2026-05-07 07:24 | 47.51153 | -122.28695 | 1568 ft | 177 kts | 153° |
| 2026-05-07 07:24 | 47.50095 | -122.27799 | 2800 ft | 177 kts | 153° |
| 2026-05-07 07:24 | 47.48941 | -122.26824 | 3456 ft | 206 kts | 152° |
| 2026-05-07 07:24 | 47.47590 | -122.25684 | 3942 ft | 238 kts | 152° |
| 2026-05-07 07:25 | 47.45440 | -122.21924 | 5784 ft | 267 kts | 99° |
| 2026-05-07 07:25 | 47.45323 | -122.19117 | 6664 ft | 281 kts | 91° |
| 2026-05-07 07:25 | 47.45243 | -122.16210 | 7846 ft | 285 kts | 91° |
| 2026-05-07 07:26 | 47.45139 | -122.13243 | 8985 ft | 292 kts | 91° |
| 2026-05-07 07:26 | 47.45015 | -122.10194 | 10056 ft | 302 kts | 91° |
| 2026-05-07 07:26 | 47.44875 | -122.07051 | 10787 ft | 323 kts | 92° |
| 2026-05-07 07:26 | 47.44711 | -122.03562 | 11117 ft | 358 kts | 92° |
| 2026-05-07 07:27 | 47.44518 | -121.99739 | 11751 ft | 381 kts | 92° |
| 2026-05-07 07:27 | 47.44308 | -121.95788 | 12870 ft | 390 kts | 92° |
| 2026-05-07 07:27 | 47.44089 | -121.91761 | 14082 ft | 397 kts | 92° |
| 2026-05-07 07:27 | 47.43864 | -121.87658 | 15135 ft | 405 kts | 92° |
| 2026-05-07 07:28 | 47.43632 | -121.83473 | 16159 ft | 412 kts | 92° |
| 2026-05-07 07:28 | 47.43397 | -121.79211 | 17171 ft | 420 kts | 92° |
| 2026-05-07 07:28 | 47.43239 | -121.76350 | 17834 ft | 424 kts | 92° |
| 2026-05-07 07:28 | 47.42952 | -121.70507 | 19035 ft | 435 kts | 90° |
| 2026-05-07 07:29 | 47.42868 | -121.66001 | 19864 ft | 442 kts | 89° |
| 2026-05-07 07:29 | 47.42833 | -121.62931 | 20432 ft | 447 kts | 88° |
| 2026-05-07 07:29 | 47.42792 | -121.58289 | 21256 ft | 454 kts | 88° |
| 2026-05-07 07:29 | 47.42745 | -121.53586 | 22073 ft | 462 kts | 88° |
| 2026-05-07 07:30 | 47.42686 | -121.48863 | 22903 ft | 469 kts | 88° |
| 2026-05-07 07:30 | 47.42620 | -121.44005 | 23721 ft | 476 kts | 88° |
| 2026-05-07 07:30 | 47.42546 | -121.39078 | 24364 ft | 483 kts | 88° |
| 2026-05-07 07:30 | 47.42463 | -121.34091 | 25126 ft | 487 kts | 88° |
| 2026-05-07 07:31 | 47.42379 | -121.29073 | 25860 ft | 491 kts | 88° |
| 2026-05-07 07:31 | 47.42293 | -121.23989 | 26547 ft | 498 kts | 88° |
| 2026-05-07 07:31 | 47.42205 | -121.18846 | 27219 ft | 504 kts | 88° |
| 2026-05-07 07:31 | 47.42113 | -121.13635 | 27915 ft | 510 kts | 88° |
| 2026-05-07 07:32 | 47.42017 | -121.08373 | 28545 ft | 515 kts | 88° |
| 2026-05-07 07:32 | 47.41917 | -121.03066 | 29208 ft | 521 kts | 88° |
| 2026-05-07 07:32 | 47.41814 | -120.97742 | 29856 ft | 527 kts | 87° |
| 2026-05-07 07:32 | 47.41710 | -120.92294 | 30383 ft | 533 kts | 87° |
| 2026-05-07 07:33 | 47.41601 | -120.86800 | 30837 ft | 537 kts | 87° |
| 2026-05-07 07:33 | 47.41487 | -120.81275 | 31358 ft | 539 kts | 87° |
| 2026-05-07 07:33 | 47.41370 | -120.75747 | 32047 ft | 538 kts | 87° |
| 2026-05-07 07:33 | 47.41250 | -120.70255 | 32784 ft | 534 kts | 87° |
| 2026-05-07 07:34 | 47.41128 | -120.64795 | 33579 ft | 530 kts | 87° |
| 2026-05-07 07:34 | 47.41005 | -120.59364 | 34239 ft | 529 kts | 87° |
| 2026-05-07 07:34 | 47.40884 | -120.53932 | 34791 ft | 529 kts | 87° |
| 2026-05-07 07:34 | 47.40762 | -120.48513 | 35392 ft | 527 kts | 87° |
| 2026-05-07 07:35 | 47.40536 | -120.43104 | 35986 ft | 529 kts | 91° |
| 2026-05-07 07:35 | 47.39996 | -120.37717 | 36550 ft | 532 kts | 98° |
| 2026-05-07 07:35 | 47.39119 | -120.32448 | 37005 ft | 533 kts | 101° |
| 2026-05-07 07:36 | 47.37188 | -120.21783 | 37005 ft | 536 kts | 101° |
| 2026-05-07 07:36 | 47.35289 | -120.11215 | 36996 ft | 531 kts | 101° |
| 2026-05-07 07:37 | 47.33440 | -120.00697 | 36983 ft | 529 kts | 101° |
| 2026-05-07 07:37 | 47.31598 | -119.90181 | 36930 ft | 530 kts | 101° |
| 2026-05-07 07:38 | 47.29752 | -119.79733 | 36920 ft | 530 kts | 101° |
| 2026-05-07 07:38 | 47.27883 | -119.69254 | 36938 ft | 529 kts | 101° |
| 2026-05-07 07:39 | 47.26002 | -119.58771 | 36933 ft | 529 kts | 101° |
| 2026-05-07 07:39 | 47.24113 | -119.48296 | 36936 ft | 530 kts | 101° |
| 2026-05-07 07:40 | 47.22216 | -119.37820 | 36953 ft | 530 kts | 101° |
| 2026-05-07 07:40 | 47.20768 | -119.27251 | 36955 ft | 524 kts | 90° |
| 2026-05-07 07:41 | 47.20266 | -119.16588 | 36959 ft | 522 kts | 88° |
| 2026-05-07 07:41 | 47.19786 | -119.05917 | 36950 ft | 524 kts | 88° |
| 2026-05-07 07:42 | 47.19250 | -118.95207 | 36942 ft | 525 kts | 89° |
| 2026-05-07 07:42 | 47.18681 | -118.84488 | 36946 ft | 525 kts | 89° |
| 2026-05-07 07:43 | 47.18104 | -118.73847 | 36957 ft | 526 kts | 88° |
| 2026-05-07 07:43 | 47.17514 | -118.63107 | 36948 ft | 526 kts | 88° |
| 2026-05-07 07:44 | 47.16918 | -118.52393 | 36944 ft | 525 kts | 88° |
| 2026-05-07 07:44 | 47.16313 | -118.41709 | 36936 ft | 524 kts | 89° |
| 2026-05-07 07:45 | 47.15699 | -118.31029 | 36975 ft | 523 kts | 88° |
| 2026-05-07 07:45 | 47.15075 | -118.20362 | 36937 ft | 524 kts | 88° |
| 2026-05-07 07:46 | 47.14442 | -118.09700 | 36932 ft | 523 kts | 88° |
| 2026-05-07 07:46 | 47.13805 | -117.99116 | 36938 ft | 523 kts | 89° |
| 2026-05-07 07:47 | 47.13150 | -117.88457 | 36940 ft | 523 kts | 89° |
| 2026-05-07 07:47 | 47.12483 | -117.77813 | 36951 ft | 523 kts | 88° |
| 2026-05-07 07:48 | 47.11815 | -117.67254 | 36945 ft | 522 kts | 89° |
| 2026-05-07 07:48 | 47.11132 | -117.56625 | 36946 ft | 522 kts | 89° |
| 2026-05-07 07:49 | 47.10440 | -117.46020 | 36954 ft | 522 kts | 89° |
| 2026-05-07 07:49 | 47.09738 | -117.35391 | 36955 ft | 522 kts | 89° |
| 2026-05-07 07:50 | 47.09027 | -117.24774 | 36957 ft | 523 kts | 89° |
| 2026-05-07 07:50 | 47.08308 | -117.14209 | 36971 ft | 523 kts | 89° |
| 2026-05-07 07:51 | 47.07575 | -117.03586 | 36980 ft | 523 kts | 89° |
| 2026-05-07 07:51 | 47.06834 | -116.92966 | 36967 ft | 523 kts | 89° |
| 2026-05-07 07:52 | 47.06080 | -116.82337 | 37010 ft | 523 kts | 89° |
| 2026-05-07 07:52 | 47.05318 | -116.71696 | 36934 ft | 524 kts | 89° |
| 2026-05-07 07:53 | 47.04548 | -116.61134 | 36943 ft | 523 kts | 89° |
| 2026-05-07 07:53 | 47.03765 | -116.50519 | 36932 ft | 524 kts | 89° |
| 2026-05-07 07:54 | 47.02973 | -116.39887 | 36927 ft | 524 kts | 89° |
| 2026-05-07 07:54 | 47.02174 | -116.29271 | 36938 ft | 525 kts | 89° |
| 2026-05-07 07:55 | 47.01358 | -116.18612 | 36903 ft | 526 kts | 89° |
| 2026-05-07 07:55 | 47.00534 | -116.08010 | 36917 ft | 527 kts | 89° |
| 2026-05-07 07:56 | 46.99697 | -115.97330 | 36920 ft | 527 kts | 89° |
| 2026-05-07 07:56 | 46.98848 | -115.86622 | 36898 ft | 528 kts | 89° |
| 2026-05-07 07:57 | 46.97990 | -115.75938 | 36904 ft | 528 kts | 89° |
| 2026-05-07 07:57 | 46.97119 | -115.65252 | 36909 ft | 528 kts | 89° |
| 2026-05-07 07:58 | 46.96248 | -115.54662 | 36886 ft | 527 kts | 90° |
| 2026-05-07 07:58 | 46.95365 | -115.44028 | 36906 ft | 525 kts | 90° |
| 2026-05-07 07:59 | 46.94473 | -115.33413 | 36937 ft | 524 kts | 90° |
| 2026-05-07 07:59 | 46.93571 | -115.22826 | 36917 ft | 522 kts | 90° |
| 2026-05-07 08:00 | 46.92663 | -115.12281 | 36910 ft | 522 kts | 90° |
| 2026-05-07 08:00 | 46.91754 | -115.01828 | 36880 ft | 520 kts | 90° |
| 2026-05-07 08:01 | 46.90835 | -114.91314 | 36918 ft | 521 kts | 90° |
| 2026-05-07 08:01 | 46.89898 | -114.80775 | 36923 ft | 523 kts | 90° |
| 2026-05-07 08:02 | 46.88943 | -114.70219 | 36914 ft | 524 kts | 90° |
| 2026-05-07 08:02 | 46.87985 | -114.59661 | 36925 ft | 525 kts | 90° |
| 2026-05-07 08:03 | 46.87015 | -114.49072 | 36908 ft | 526 kts | 90° |
| 2026-05-07 08:03 | 46.86040 | -114.38570 | 36902 ft | 524 kts | 90° |
| 2026-05-07 08:04 | 46.85057 | -114.28057 | 36958 ft | 520 kts | 90° |
| 2026-05-07 08:04 | 46.84063 | -114.17588 | 36969 ft | 520 kts | 90° |
| 2026-05-07 08:05 | 46.83066 | -114.07112 | 36959 ft | 520 kts | 91° |
| 2026-05-07 08:05 | 46.82060 | -113.96645 | 36968 ft | 520 kts | 91° |
| 2026-05-07 08:06 | 46.81047 | -113.86235 | 37004 ft | 522 kts | 91° |
| 2026-05-07 08:06 | 46.80012 | -113.75704 | 36952 ft | 524 kts | 91° |
| 2026-05-07 08:07 | 46.78964 | -113.65167 | 36942 ft | 525 kts | 91° |
| 2026-05-07 08:07 | 46.77903 | -113.54594 | 36920 ft | 526 kts | 91° |
| 2026-05-07 08:08 | 46.76835 | -113.44060 | 36945 ft | 525 kts | 91° |
| 2026-05-07 08:08 | 46.75759 | -113.33515 | 36950 ft | 527 kts | 91° |
| 2026-05-07 08:09 | 46.74675 | -113.22993 | 36938 ft | 529 kts | 91° |
| 2026-05-07 08:09 | 46.73575 | -113.12365 | 36921 ft | 530 kts | 92° |
| 2026-05-07 08:10 | 46.72453 | -113.01768 | 36923 ft | 528 kts | 92° |
| 2026-05-07 08:10 | 46.71332 | -112.91218 | 36921 ft | 526 kts | 92° |
| 2026-05-07 08:11 | 46.70206 | -112.80672 | 36919 ft | 527 kts | 92° |
| 2026-05-07 08:11 | 46.69068 | -112.70116 | 36914 ft | 527 kts | 92° |
| 2026-05-07 08:12 | 46.67926 | -112.59630 | 36903 ft | 528 kts | 92° |
| 2026-05-07 08:12 | 46.66766 | -112.49074 | 36900 ft | 528 kts | 92° |
| 2026-05-07 08:13 | 46.65599 | -112.38542 | 36951 ft | 526 kts | 93° |
| 2026-05-07 08:13 | 46.64418 | -112.27998 | 36928 ft | 526 kts | 93° |
| 2026-05-07 08:14 | 46.63235 | -112.17500 | 36947 ft | 526 kts | 93° |
| 2026-05-07 08:14 | 46.62041 | -112.06991 | 36936 ft | 526 kts | 93° |
| 2026-05-07 08:15 | 46.60811 | -111.96497 | 36939 ft | 528 kts | 96° |
| 2026-05-07 08:15 | 46.58808 | -111.86231 | 36935 ft | 533 kts | 103° |
| 2026-05-07 08:16 | 46.56846 | -111.77728 | 36932 ft | 532 kts | 104° |
| 2026-05-07 08:16 | 46.54496 | -111.67544 | 36910 ft | 530 kts | 103° |
| 2026-05-07 08:17 | 46.52188 | -111.57386 | 36918 ft | 528 kts | 103° |
| 2026-05-07 08:17 | 46.49898 | -111.47252 | 36894 ft | 528 kts | 103° |
| 2026-05-07 08:18 | 46.47599 | -111.37121 | 36897 ft | 529 kts | 104° |
| 2026-05-07 08:18 | 46.45299 | -111.27054 | 36891 ft | 527 kts | 104° |
| 2026-05-07 08:19 | 46.42980 | -111.16961 | 36867 ft | 527 kts | 104° |
| 2026-05-07 08:19 | 46.40656 | -111.06900 | 36897 ft | 524 kts | 104° |
| 2026-05-07 08:20 | 46.38353 | -110.96947 | 36905 ft | 525 kts | 104° |
| 2026-05-07 08:20 | 46.36011 | -110.86894 | 36945 ft | 527 kts | 105° |
| 2026-05-07 08:21 | 46.33655 | -110.76830 | 36902 ft | 528 kts | 105° |
| 2026-05-07 08:21 | 46.31293 | -110.66785 | 36889 ft | 526 kts | 105° |
| 2026-05-07 08:22 | 46.28928 | -110.56772 | 36895 ft | 526 kts | 105° |
| 2026-05-07 08:22 | 46.26573 | -110.46839 | 36898 ft | 526 kts | 105° |
| 2026-05-07 08:23 | 46.24193 | -110.36856 | 36897 ft | 525 kts | 105° |
| 2026-05-07 08:23 | 46.21806 | -110.26880 | 36883 ft | 524 kts | 105° |
| 2026-05-07 08:24 | 46.19417 | -110.16945 | 36880 ft | 523 kts | 105° |
| 2026-05-07 08:24 | 46.17023 | -110.07039 | 36886 ft | 522 kts | 106° |
| 2026-05-07 08:25 | 46.14626 | -109.97156 | 36885 ft | 521 kts | 106° |
| 2026-05-07 08:25 | 46.12240 | -109.87362 | 36878 ft | 521 kts | 106° |
| 2026-05-07 08:26 | 46.08614 | -109.72556 | 36867 ft | 523 kts | 106° |
| 2026-05-07 08:26 | 46.06180 | -109.62677 | 36862 ft | 523 kts | 106° |
| 2026-05-07 08:27 | 46.03736 | -109.52799 | 36865 ft | 524 kts | 106° |
| 2026-05-07 08:27 | 46.01275 | -109.42911 | 36864 ft | 525 kts | 106° |
| 2026-05-07 08:28 | 45.98803 | -109.33015 | 36899 ft | 525 kts | 107° |
| 2026-05-07 08:28 | 45.96326 | -109.23129 | 36856 ft | 524 kts | 107° |
| 2026-05-07 08:29 | 45.93846 | -109.13276 | 36855 ft | 523 kts | 107° |
| 2026-05-07 08:29 | 45.91367 | -109.03463 | 36870 ft | 522 kts | 107° |
| 2026-05-07 08:30 | 45.88880 | -108.93664 | 36865 ft | 522 kts | 107° |
| 2026-05-07 08:30 | 45.86402 | -108.83942 | 36904 ft | 522 kts | 107° |
| 2026-05-07 08:31 | 45.83899 | -108.74160 | 36901 ft | 522 kts | 107° |
| 2026-05-07 08:31 | 45.81507 | -108.64356 | 36914 ft | 518 kts | 102° |
| 2026-05-07 08:32 | 45.80162 | -108.54278 | 36913 ft | 512 kts | 91° |
| 2026-05-07 08:32 | 45.79449 | -108.44108 | 36921 ft | 513 kts | 91° |
| 2026-05-07 08:33 | 45.78717 | -108.33918 | 36932 ft | 514 kts | 91° |
| 2026-05-07 08:33 | 45.77939 | -108.23715 | 36898 ft | 515 kts | 92° |
| 2026-05-07 08:34 | 45.77142 | -108.13583 | 36884 ft | 514 kts | 92° |
| 2026-05-07 08:34 | 45.76329 | -108.03397 | 36881 ft | 513 kts | 92° |
| 2026-05-07 08:35 | 45.75512 | -107.93226 | 36909 ft | 513 kts | 92° |
| 2026-05-07 08:35 | 45.74688 | -107.83080 | 36911 ft | 512 kts | 92° |
| 2026-05-07 08:36 | 45.73862 | -107.73006 | 36908 ft | 512 kts | 92° |
| 2026-05-07 08:36 | 45.73023 | -107.62893 | 36925 ft | 511 kts | 92° |
| 2026-05-07 08:37 | 45.72175 | -107.52785 | 36924 ft | 511 kts | 92° |
| 2026-05-07 08:37 | 45.71319 | -107.42684 | 36932 ft | 512 kts | 92° |
| 2026-05-07 08:38 | 45.70453 | -107.32580 | 36921 ft | 510 kts | 92° |
| 2026-05-07 08:38 | 45.69579 | -107.22512 | 36926 ft | 509 kts | 92° |
| 2026-05-07 08:39 | 45.68701 | -107.12468 | 36926 ft | 509 kts | 92° |
| 2026-05-07 08:39 | 45.67814 | -107.02432 | 36928 ft | 508 kts | 93° |
| 2026-05-07 08:40 | 45.66926 | -106.92479 | 36915 ft | 507 kts | 93° |
| 2026-05-07 08:40 | 45.66023 | -106.82483 | 36921 ft | 506 kts | 93° |
| 2026-05-07 08:41 | 45.65114 | -106.72497 | 36934 ft | 506 kts | 93° |
| 2026-05-07 08:41 | 45.64196 | -106.62523 | 36962 ft | 506 kts | 94° |
| 2026-05-07 08:42 | 45.63273 | -106.52540 | 36938 ft | 505 kts | 93° |
| 2026-05-07 08:42 | 45.62350 | -106.42612 | 36938 ft | 504 kts | 94° |
| 2026-05-07 08:43 | 45.61411 | -106.32735 | 36947 ft | 503 kts | 94° |
| 2026-05-07 08:43 | 45.60460 | -106.22835 | 36941 ft | 503 kts | 94° |
| 2026-05-07 08:44 | 45.59503 | -106.12930 | 36942 ft | 504 kts | 94° |
| 2026-05-07 08:44 | 45.58535 | -106.03000 | 36929 ft | 503 kts | 94° |
| 2026-05-07 08:45 | 45.57562 | -105.93114 | 36912 ft | 503 kts | 94° |
| 2026-05-07 08:45 | 45.56581 | -105.83231 | 36910 ft | 502 kts | 94° |
| 2026-05-07 08:46 | 45.55598 | -105.73413 | 36923 ft | 503 kts | 94° |
| 2026-05-07 08:46 | 45.54600 | -105.63524 | 36916 ft | 503 kts | 94° |
| 2026-05-07 08:47 | 45.53593 | -105.53627 | 36919 ft | 504 kts | 95° |
| 2026-05-07 08:47 | 45.52576 | -105.43739 | 36918 ft | 504 kts | 95° |
| 2026-05-07 08:48 | 45.51549 | -105.33840 | 36930 ft | 504 kts | 95° |
| 2026-05-07 08:48 | 45.50513 | -105.23946 | 36950 ft | 504 kts | 95° |
| 2026-05-07 08:49 | 45.49471 | -105.14057 | 36955 ft | 505 kts | 95° |
| 2026-05-07 08:49 | 45.48419 | -105.04169 | 36957 ft | 505 kts | 95° |
| 2026-05-07 08:50 | 45.47357 | -104.94275 | 36957 ft | 505 kts | 95° |
| 2026-05-07 08:50 | 45.46292 | -104.84420 | 36956 ft | 506 kts | 95° |
| 2026-05-07 08:51 | 45.45212 | -104.74514 | 36940 ft | 506 kts | 95° |
| 2026-05-07 08:51 | 45.44121 | -104.64590 | 36939 ft | 507 kts | 95° |
| 2026-05-07 08:52 | 45.43027 | -104.54735 | 36915 ft | 507 kts | 96° |
| 2026-05-07 08:52 | 45.41917 | -104.44823 | 36939 ft | 507 kts | 95° |
| 2026-05-07 08:53 | 45.40800 | -104.34908 | 36916 ft | 507 kts | 95° |
| 2026-05-07 08:53 | 45.39673 | -104.24984 | 36913 ft | 508 kts | 96° |
| 2026-05-07 08:54 | 45.38537 | -104.15060 | 36912 ft | 508 kts | 96° |
| 2026-05-07 08:54 | 45.37399 | -104.05202 | 36946 ft | 508 kts | 95° |
| 2026-05-07 08:55 | 45.36246 | -103.95287 | 36910 ft | 508 kts | 95° |
| 2026-05-07 08:55 | 45.35082 | -103.85350 | 36915 ft | 508 kts | 95° |
| 2026-05-07 08:56 | 45.33911 | -103.75447 | 36897 ft | 507 kts | 95° |
| 2026-05-07 08:56 | 45.32738 | -103.65590 | 36906 ft | 507 kts | 96° |
| 2026-05-07 08:57 | 45.31551 | -103.55692 | 36917 ft | 509 kts | 95° |
| 2026-05-07 08:57 | 45.30353 | -103.45776 | 36919 ft | 510 kts | 95° |
| 2026-05-07 08:58 | 45.29142 | -103.35833 | 36919 ft | 511 kts | 96° |
| 2026-05-07 08:58 | 45.27921 | -103.25883 | 36918 ft | 511 kts | 96° |
| 2026-05-07 08:59 | 45.26697 | -103.15981 | 36929 ft | 513 kts | 95° |
| 2026-05-07 08:59 | 45.25454 | -103.06004 | 36928 ft | 513 kts | 95° |
| 2026-05-07 09:00 | 45.24204 | -102.96038 | 36934 ft | 513 kts | 95° |
| 2026-05-07 09:00 | 45.22943 | -102.86066 | 36934 ft | 513 kts | 96° |
| 2026-05-07 09:01 | 45.21888 | -102.77777 | 36971 ft | 514 kts | 95° |
| 2026-05-07 09:01 | 45.20609 | -102.67791 | 36941 ft | 515 kts | 95° |
| 2026-05-07 09:02 | 45.19318 | -102.57788 | 36939 ft | 515 kts | 96° |
| 2026-05-07 09:02 | 45.18021 | -102.47804 | 36938 ft | 515 kts | 96° |
| 2026-05-07 09:03 | 45.16715 | -102.37830 | 36988 ft | 515 kts | 96° |
| 2026-05-07 09:03 | 45.15407 | -102.27903 | 36942 ft | 516 kts | 96° |
| 2026-05-07 09:04 | 45.14083 | -102.17927 | 36944 ft | 515 kts | 96° |
| 2026-05-07 09:04 | 45.12747 | -102.07936 | 36929 ft | 515 kts | 96° |
| 2026-05-07 09:05 | 45.11404 | -101.97960 | 36951 ft | 515 kts | 96° |
| 2026-05-07 09:05 | 45.10059 | -101.88027 | 36952 ft | 517 kts | 96° |
| 2026-05-07 09:06 | 45.08698 | -101.78040 | 36946 ft | 517 kts | 96° |
| 2026-05-07 09:06 | 45.07020 | -101.68111 | 36934 ft | 523 kts | 105° |
| 2026-05-07 09:07 | 45.04480 | -101.58474 | 36948 ft | 523 kts | 107° |
| 2026-05-07 09:07 | 45.01872 | -101.48862 | 36947 ft | 524 kts | 107° |
| 2026-05-07 09:08 | 44.99286 | -101.39216 | 36936 ft | 524 kts | 107° |
| 2026-05-07 09:08 | 44.96742 | -101.29645 | 36935 ft | 524 kts | 107° |
| 2026-05-07 09:09 | 44.94177 | -101.20002 | 36938 ft | 524 kts | 107° |
| 2026-05-07 09:09 | 44.91605 | -101.10383 | 36948 ft | 524 kts | 107° |
| 2026-05-07 09:10 | 44.89023 | -101.00775 | 36948 ft | 524 kts | 107° |
| 2026-05-07 09:10 | 44.86432 | -100.91175 | 36926 ft | 524 kts | 107° |
| 2026-05-07 09:11 | 44.83827 | -100.81559 | 36928 ft | 524 kts | 108° |
| 2026-05-07 09:11 | 44.81236 | -100.72037 | 36929 ft | 524 kts | 108° |
| 2026-05-07 09:12 | 44.78615 | -100.62436 | 36934 ft | 525 kts | 108° |
| 2026-05-07 09:12 | 44.75982 | -100.52835 | 36936 ft | 525 kts | 108° |
| 2026-05-07 09:13 | 44.73341 | -100.43242 | 36930 ft | 526 kts | 108° |
| 2026-05-07 09:13 | 44.70687 | -100.33640 | 36923 ft | 525 kts | 108° |
| 2026-05-07 09:14 | 44.68047 | -100.24125 | 36973 ft | 525 kts | 108° |
| 2026-05-07 09:14 | 44.65379 | -100.14543 | 36939 ft | 527 kts | 108° |
| 2026-05-07 09:15 | 44.62694 | -100.04944 | 36935 ft | 528 kts | 108° |
| 2026-05-07 09:15 | 44.60003 | -99.95359 | 36940 ft | 528 kts | 108° |
| 2026-05-07 09:16 | 44.57306 | -99.85791 | 36945 ft | 527 kts | 109° |
| 2026-05-07 09:16 | 44.54599 | -99.76223 | 36954 ft | 528 kts | 109° |
| 2026-05-07 09:17 | 44.51879 | -99.66644 | 36947 ft | 529 kts | 109° |
| 2026-05-07 09:17 | 44.49165 | -99.57125 | 36950 ft | 529 kts | 109° |
| 2026-05-07 09:18 | 44.46424 | -99.47551 | 36954 ft | 529 kts | 109° |
| 2026-05-07 09:18 | 44.43668 | -99.37958 | 36945 ft | 531 kts | 109° |
| 2026-05-07 09:19 | 44.40906 | -99.28385 | 36952 ft | 530 kts | 109° |
| 2026-05-07 09:19 | 44.38138 | -99.18823 | 36950 ft | 530 kts | 109° |
| 2026-05-07 09:20 | 44.35381 | -99.09340 | 36947 ft | 529 kts | 109° |
| 2026-05-07 09:20 | 44.32597 | -98.99797 | 36954 ft | 530 kts | 109° |
| 2026-05-07 09:21 | 44.29805 | -98.90261 | 36968 ft | 530 kts | 109° |
| 2026-05-07 09:21 | 44.27024 | -98.80802 | 36941 ft | 530 kts | 109° |
| 2026-05-07 09:22 | 44.24219 | -98.71297 | 37001 ft | 530 kts | 110° |
| 2026-05-07 09:22 | 44.21393 | -98.61755 | 36969 ft | 532 kts | 110° |
| 2026-05-07 09:23 | 44.18554 | -98.52208 | 36962 ft | 533 kts | 110° |
| 2026-05-07 09:23 | 44.15722 | -98.42717 | 36967 ft | 533 kts | 110° |
| 2026-05-07 09:24 | 44.12869 | -98.33194 | 37012 ft | 533 kts | 110° |
| 2026-05-07 09:24 | 44.10007 | -98.23675 | 36962 ft | 533 kts | 110° |
| 2026-05-07 09:25 | 44.07135 | -98.14159 | 36968 ft | 533 kts | 110° |
| 2026-05-07 09:25 | 44.04250 | -98.04637 | 36962 ft | 534 kts | 111° |
| 2026-05-07 09:26 | 44.01359 | -97.95126 | 36999 ft | 534 kts | 111° |
| 2026-05-07 09:26 | 43.98459 | -97.85621 | 36967 ft | 534 kts | 111° |
| 2026-05-07 09:27 | 43.95563 | -97.76167 | 36936 ft | 534 kts | 111° |
| 2026-05-07 09:28 | 43.91190 | -97.61959 | 36977 ft | 534 kts | 111° |
| 2026-05-07 09:28 | 43.88263 | -97.52486 | 36979 ft | 535 kts | 112° |
| 2026-05-07 09:29 | 43.85343 | -97.43075 | 36973 ft | 534 kts | 112° |
| 2026-05-07 09:29 | 43.82400 | -97.33622 | 36963 ft | 534 kts | 112° |
| 2026-05-07 09:30 | 43.79452 | -97.24187 | 36932 ft | 533 kts | 112° |
| 2026-05-07 09:30 | 43.76493 | -97.14755 | 36963 ft | 533 kts | 112° |
| 2026-05-07 09:31 | 43.73531 | -97.05343 | 36969 ft | 534 kts | 112° |
| 2026-05-07 09:31 | 43.70577 | -96.95988 | 36971 ft | 535 kts | 112° |
| 2026-05-07 09:32 | 43.67592 | -96.86564 | 36965 ft | 535 kts | 112° |
| 2026-05-07 09:32 | 43.64843 | -96.77016 | 36970 ft | 534 kts | 106° |
| 2026-05-07 09:33 | 43.63185 | -96.67048 | 36950 ft | 531 kts | 98° |
| 2026-05-07 09:33 | 43.61802 | -96.57025 | 36970 ft | 531 kts | 99° |
| 2026-05-07 09:34 | 43.60385 | -96.47086 | 36970 ft | 531 kts | 99° |
| 2026-05-07 09:34 | 43.58914 | -96.37077 | 36983 ft | 533 kts | 100° |
| 2026-05-07 09:35 | 43.57419 | -96.27033 | 36975 ft | 533 kts | 100° |
| 2026-05-07 09:35 | 43.55930 | -96.17077 | 36983 ft | 533 kts | 100° |
| 2026-05-07 09:36 | 43.54427 | -96.07066 | 37016 ft | 533 kts | 100° |
| 2026-05-07 09:36 | 43.52912 | -95.97044 | 36985 ft | 534 kts | 100° |
| 2026-05-07 09:37 | 43.51388 | -95.87026 | 36970 ft | 534 kts | 101° |
| 2026-05-07 09:37 | 43.49857 | -95.77018 | 36987 ft | 534 kts | 101° |
| 2026-05-07 09:38 | 43.48315 | -95.67003 | 36966 ft | 534 kts | 101° |
| 2026-05-07 09:38 | 43.46762 | -95.56975 | 37008 ft | 536 kts | 101° |
| 2026-05-07 09:39 | 43.45205 | -95.46986 | 36995 ft | 537 kts | 101° |
| 2026-05-07 09:39 | 43.43627 | -95.36917 | 36982 ft | 538 kts | 101° |
| 2026-05-07 09:40 | 43.42038 | -95.26847 | 36992 ft | 539 kts | 101° |
| 2026-05-07 09:40 | 43.40436 | -95.16779 | 36982 ft | 539 kts | 101° |
| 2026-05-07 09:41 | 43.38828 | -95.06724 | 36980 ft | 538 kts | 101° |
| 2026-05-07 09:41 | 43.37216 | -94.96697 | 36973 ft | 537 kts | 102° |
| 2026-05-07 09:42 | 43.35595 | -94.86669 | 36986 ft | 537 kts | 102° |
| 2026-05-07 09:42 | 43.33976 | -94.76715 | 36970 ft | 536 kts | 102° |
| 2026-05-07 09:43 | 43.32340 | -94.66718 | 37001 ft | 536 kts | 102° |
| 2026-05-07 09:43 | 43.30694 | -94.56714 | 37027 ft | 537 kts | 102° |
| 2026-05-07 09:44 | 43.29034 | -94.46686 | 37007 ft | 538 kts | 102° |
| 2026-05-07 09:44 | 43.27370 | -94.36728 | 36985 ft | 539 kts | 103° |
| 2026-05-07 09:45 | 43.25683 | -94.26682 | 36975 ft | 540 kts | 103° |
| 2026-05-07 09:45 | 43.23995 | -94.16680 | 36998 ft | 540 kts | 103° |
| 2026-05-07 09:46 | 43.22291 | -94.06638 | 36983 ft | 539 kts | 103° |
| 2026-05-07 09:46 | 43.20584 | -93.96634 | 36990 ft | 538 kts | 103° |
| 2026-05-07 09:47 | 43.18869 | -93.86639 | 37004 ft | 538 kts | 103° |
| 2026-05-07 09:47 | 43.17149 | -93.76672 | 37016 ft | 537 kts | 103° |
| 2026-05-07 09:48 | 43.15419 | -93.66704 | 36977 ft | 538 kts | 103° |
| 2026-05-07 09:48 | 43.13690 | -93.56796 | 36986 ft | 539 kts | 104° |
| 2026-05-07 09:49 | 43.11937 | -93.46806 | 36989 ft | 540 kts | 104° |
| 2026-05-07 09:49 | 43.10174 | -93.36802 | 36995 ft | 541 kts | 104° |
| 2026-05-07 09:50 | 43.08075 | -93.26919 | 36998 ft | 540 kts | 110° |
| 2026-05-07 09:50 | 43.06014 | -93.18850 | 37001 ft | 540 kts | 110° |
| 2026-05-07 09:51 | 43.03505 | -93.09155 | 36996 ft | 541 kts | 110° |
| 2026-05-07 09:51 | 43.01025 | -92.99468 | 37011 ft | 540 kts | 110° |
| 2026-05-07 09:52 | 42.98553 | -92.89755 | 37004 ft | 540 kts | 110° |
| 2026-05-07 09:52 | 42.96078 | -92.80057 | 37004 ft | 540 kts | 110° |
| 2026-05-07 09:53 | 42.93611 | -92.70437 | 37013 ft | 540 kts | 110° |
| 2026-05-07 09:53 | 42.91112 | -92.60746 | 37014 ft | 540 kts | 110° |
| 2026-05-07 09:54 | 42.88609 | -92.51076 | 37014 ft | 540 kts | 110° |
| 2026-05-07 09:54 | 42.86099 | -92.41418 | 37020 ft | 540 kts | 110° |
| 2026-05-07 09:55 | 42.83581 | -92.31768 | 37015 ft | 539 kts | 111° |
| 2026-05-07 09:55 | 42.81062 | -92.22153 | 37023 ft | 538 kts | 111° |
| 2026-05-07 09:56 | 42.78554 | -92.12618 | 37014 ft | 538 kts | 111° |
| 2026-05-07 09:56 | 42.76023 | -92.03037 | 37008 ft | 537 kts | 111° |
| 2026-05-07 09:57 | 42.73489 | -91.93479 | 37007 ft | 536 kts | 111° |
| 2026-05-07 09:57 | 42.70953 | -91.83948 | 37036 ft | 535 kts | 111° |
| 2026-05-07 09:58 | 42.68428 | -91.74501 | 37033 ft | 535 kts | 112° |
| 2026-05-07 09:58 | 42.65880 | -91.65000 | 37038 ft | 535 kts | 112° |
| 2026-05-07 09:59 | 42.63323 | -91.55508 | 37033 ft | 535 kts | 112° |
| 2026-05-07 09:59 | 42.60759 | -91.46025 | 37044 ft | 535 kts | 112° |
| 2026-05-07 10:00 | 42.58186 | -91.36553 | 37024 ft | 535 kts | 112° |
| 2026-05-07 10:00 | 42.55604 | -91.27081 | 37034 ft | 536 kts | 112° |
| 2026-05-07 10:01 | 42.53009 | -91.17589 | 37042 ft | 536 kts | 112° |
| 2026-05-07 10:01 | 42.50407 | -91.08105 | 37031 ft | 537 kts | 113° |
| 2026-05-07 10:02 | 42.47809 | -90.98682 | 37037 ft | 537 kts | 113° |
| 2026-05-07 10:02 | 42.45188 | -90.89204 | 37028 ft | 537 kts | 113° |
| 2026-05-07 10:03 | 42.42560 | -90.79733 | 37028 ft | 537 kts | 113° |
| 2026-05-07 10:03 | 42.39905 | -90.70288 | 36996 ft | 536 kts | 116° |
| 2026-05-07 10:04 | 42.36827 | -90.61136 | 37012 ft | 534 kts | 119° |
| 2026-05-07 10:04 | 42.33659 | -90.52092 | 37042 ft | 536 kts | 119° |
| 2026-05-07 10:05 | 42.30477 | -90.42978 | 37031 ft | 537 kts | 119° |
| 2026-05-07 10:05 | 42.27304 | -90.33836 | 37055 ft | 537 kts | 119° |
| 2026-05-07 10:06 | 42.24145 | -90.24737 | 37066 ft | 537 kts | 120° |
| 2026-05-07 10:06 | 42.20965 | -90.15614 | 37061 ft | 537 kts | 120° |
| 2026-05-07 10:07 | 42.17779 | -90.06505 | 37050 ft | 536 kts | 120° |
| 2026-05-07 10:07 | 42.14585 | -89.97412 | 37062 ft | 537 kts | 120° |